Time;durP1;ratioP1;P1;durP2;ratioP2;P2;SDS_P1;SDS_P2;PMS_P1;PMS_P2;Temp;Humidity;BMP_temperature;BMP_pressure;BME280_temperature;BME280_humidity;BME280_pressure;Samples;Min_cycle;Max_cycle;Signal;HPM_P1;HPM_P2
2021/04/08 00:02:21;;;;;;;4.57;2.10;;;;;;;-0.33;75.81;100796.09;8742592;33;20232;-73
2021/04/08 00:07:23;;;;;;;8.57;3.30;;;;;;;-0.13;75.33;100799.91;8741828;33;20219;-73
2021/04/08 00:12:26;;;;;;;4.87;2.20;;;;;;;-0.26;75.70;100806.47;8742431;33;20227;-75
2021/04/08 00:17:29;;;;;;;4.00;2.57;;;;;;;-0.53;76.17;100801.94;8741887;33;20228;-73
2021/04/08 00:22:31;;;;;;;8.87;2.57;;;;;;;-0.41;76.27;100815.69;8741558;33;20240;-74
2021/04/08 00:27:34;;;;;;;7.60;3.00;;;;;;;-0.46;76.66;100818.47;8742385;33;20274;-75
2021/04/08 00:32:36;;;;;;;12.60;3.00;;;;;;;-0.54;77.14;100823.09;8741821;33;20239;-74
2021/04/08 00:37:38;;;;;;;4.60;2.10;;;;;;;-0.45;76.54;100836.03;8741697;33;20289;-74
2021/04/08 00:42:42;;;;;;;3.80;1.77;;;;;;;-0.57;76.37;100834.59;8741974;33;20235;-73
2021/04/08 00:47:44;;;;;;;5.73;2.53;;;;;;;-0.45;76.79;100832.53;8740997;33;20224;-74
2021/04/08 00:52:56;;;;;;;8.53;3.33;;;;;;;-0.64;76.89;100829.53;8746180;33;21501;-74
2021/04/08 00:58:03;;;;;;;7.23;2.73;;;;;;;-0.41;76.46;100837.69;8799366;33;20233;-75
2021/04/08 01:03:06;;;;;;;6.10;2.77;;;;;;;-0.73;77.46;100839.44;8775218;33;20248;-74
2021/04/08 01:08:08;;;;;;;10.83;3.27;;;;;;;-0.62;76.85;100849.69;8799067;33;20644;-74
2021/04/08 01:13:17;;;;;;;7.30;3.63;;;;;;;-0.65;76.77;100859.47;8799626;33;20826;-75
2021/04/08 01:18:33;;;;;;;3.00;2.27;;;;;;;-0.88;77.24;100857.44;8626693;34;20308;-74
2021/04/08 01:24:11;;;;;;;9.13;3.47;;;;;;;-0.84;77.59;100867.00;8626768;34;20264;-74
2021/04/08 01:29:32;;;;;;;9.63;3.27;;;;;;;-0.89;77.87;100882.09;8610206;34;20229;-74
2021/04/08 01:34:41;;;;;;;12.23;4.10;;;;;;;-0.84;77.80;100875.78;8626348;34;20229;-74
2021/04/08 01:39:46;;;;;;;7.43;4.33;;;;;;;-0.69;76.80;100877.13;8624946;34;20934;-73
2021/04/08 01:44:50;;;;;;;9.90;3.67;;;;;;;-0.39;76.43;100871.94;8630206;34;20233;-75
2021/04/08 01:49:54;;;;;;;6.50;5.30;;;;;;;-0.44;76.51;100872.06;8626185;34;20398;-74
2021/04/08 01:55:00;;;;;;;9.43;2.73;;;;;;;-0.64;76.66;100882.31;8625969;34;20958;-74
2021/04/08 02:00:05;;;;;;;3.80;2.60;;;;;;;-0.83;77.26;100887.19;8626069;34;20776;-75
2021/04/08 02:05:13;;;;;;;9.10;3.60;;;;;;;-0.52;76.95;100882.00;8637139;34;20319;-74
2021/04/08 02:10:17;;;;;;;6.80;3.93;;;;;;;-1.00;78.01;100895.53;8625246;34;20791;-74
2021/04/08 02:15:22;;;;;;;9.90;4.10;;;;;;;-0.45;76.88;100893.25;8649997;33;20235;-74
2021/04/08 02:20:29;;;;;;;9.27;4.13;;;;;;;-0.84;76.95;100903.94;8682620;33;20223;-74
2021/04/08 02:25:34;;;;;;;8.27;4.37;;;;;;;-0.64;77.07;100900.78;8681939;33;20363;-74
2021/04/08 02:30:46;;;;;;;9.90;4.07;;;;;;;-0.39;76.24;100907.13;8681801;33;20268;-74
2021/04/08 02:35:51;;;;;;;8.87;4.20;;;;;;;-0.39;76.36;100898.34;8681740;33;20755;-73
2021/04/08 02:40:54;;;;;;;10.10;4.77;;;;;;;-0.57;76.92;100897.94;8681853;33;20755;-75
2021/04/08 02:45:56;;;;;;;13.83;3.07;;;;;;;-0.65;77.21;100909.63;8679962;33;20795;-74
2021/04/08 02:51:05;;;;;;;7.37;4.50;;;;;;;-0.30;75.79;100920.09;8679187;33;21487;-73
2021/04/08 02:56:16;;;;;;;10.40;4.57;;;;;;;-0.60;76.55;100920.91;8678199;33;20236;-74
2021/04/08 03:01:21;;;;;;;5.97;3.87;;;;;;;-0.77;77.12;100922.22;8678576;33;20229;-74
2021/04/08 03:06:26;;;;;;;11.20;4.77;;;;;;;-0.61;75.90;100930.59;8677814;33;20220;-73
2021/04/08 03:11:32;;;;;;;8.90;3.77;;;;;;;-0.81;76.75;100938.16;8677926;33;20807;-73
2021/04/08 03:16:39;;;;;;;11.93;3.93;;;;;;;-0.83;77.42;100935.53;8678588;33;20307;-76
2021/04/08 03:21:44;;;;;;;9.60;4.37;;;;;;;-0.82;76.95;100947.84;8683411;33;20609;-74
2021/04/08 03:26:47;;;;;;;11.83;3.97;;;;;;;-0.76;76.95;100933.63;8682931;33;20216;-73
2021/04/08 03:31:50;;;;;;;11.70;3.90;;;;;;;-0.76;76.55;100946.81;8683119;33;20244;-73
2021/04/08 03:36:54;;;;;;;7.77;4.03;;;;;;;-0.61;76.49;100950.84;8682775;33;20279;-73
2021/04/08 03:41:57;;;;;;;9.57;3.50;;;;;;;-0.59;75.89;100959.59;8682952;33;21421;-73
2021/04/08 03:47:01;;;;;;;7.37;3.43;;;;;;;-0.47;75.82;100961.91;8716060;33;20242;-74
2021/04/08 03:52:07;;;;;;;12.47;3.67;;;;;;;-0.81;76.56;100961.91;8707577;33;20235;-75
2021/04/08 03:57:13;;;;;;;6.97;3.87;;;;;;;-0.65;76.47;100971.16;8713294;33;20219;-73
2021/04/08 04:02:17;;;;;;;7.83;3.10;;;;;;;-0.76;77.01;100967.94;8709367;33;20217;-74
2021/04/08 04:07:20;;;;;;;4.37;2.57;;;;;;;-0.74;76.33;100972.28;8710270;33;20262;-74
2021/04/08 04:12:23;;;;;;;7.27;3.70;;;;;;;-0.74;76.50;100968.75;8699835;33;20232;-74
2021/04/08 04:17:28;;;;;;;9.73;3.90;;;;;;;-0.85;77.03;100971.66;8693954;33;20237;-73
2021/04/08 04:22:32;;;;;;;5.23;2.40;;;;;;;-0.80;76.65;100972.41;8682263;33;20320;-74
2021/04/08 04:27:35;;;;;;;7.70;4.20;;;;;;;-0.56;76.02;100970.91;8681788;33;20225;-74
2021/04/08 04:32:37;;;;;;;8.63;3.90;;;;;;;-0.68;76.27;100986.22;8681774;33;20225;-73
2021/04/08 04:37:41;;;;;;;7.67;4.20;;;;;;;-0.60;76.15;100989.53;8681366;33;20216;-74
2021/04/08 04:42:44;;;;;;;12.27;4.83;;;;;;;-0.61;76.04;100993.06;8681618;33;20232;-74
2021/04/08 04:47:46;;;;;;;6.80;4.47;;;;;;;-0.59;75.76;101002.66;8681279;33;20316;-74
2021/04/08 04:52:49;;;;;;;10.60;4.30;;;;;;;-0.54;75.70;100999.94;8681249;33;20356;-74
2021/04/08 04:57:51;;;;;;;8.80;4.63;;;;;;;-0.54;75.94;101005.22;8681332;33;20224;-74
2021/04/08 05:02:53;;;;;;;6.23;3.37;;;;;;;-0.84;77.02;101015.59;8681401;33;20267;-75
2021/04/08 05:07:56;;;;;;;8.63;4.30;;;;;;;-0.89;77.14;101014.84;8680810;33;20228;-75
2021/04/08 05:12:58;;;;;;;6.57;4.03;;;;;;;-0.69;76.95;101024.03;8681274;33;20229;-75
2021/04/08 05:18:00;;;;;;;13.87;6.50;;;;;;;-0.65;77.00;101031.00;8681106;33;20780;-74
2021/04/08 05:23:03;;;;;;;12.60;6.07;;;;;;;-0.59;76.87;101031.69;8679397;33;20640;-73
2021/04/08 05:28:06;;;;;;;9.83;6.10;;;;;;;-0.38;76.26;101038.22;8680387;33;20236;-76
2021/04/08 05:33:08;;;;;;;9.53;6.07;;;;;;;-0.36;76.29;101040.81;8680608;33;20229;-74
2021/04/08 05:38:12;;;;;;;10.80;6.47;;;;;;;-0.46;75.83;101034.06;8680508;33;20227;-75
2021/04/08 05:43:15;;;;;;;9.90;4.47;;;;;;;-0.07;74.86;101043.56;8678974;33;20821;-75
2021/04/08 05:48:17;;;;;;;17.60;6.53;;;;;;;-0.30;75.20;101046.81;8680171;33;20220;-75
2021/04/08 05:53:20;;;;;;;16.97;7.07;;;;;;;0.21;74.08;101058.69;8678563;33;20283;-75
2021/04/08 05:58:22;;;;;;;10.83;5.90;;;;;;;-0.12;74.33;101066.59;8678313;33;20282;-75
2021/04/08 06:03:24;;;;;;;13.10;6.30;;;;;;;0.10;74.02;101060.75;8679298;33;20236;-73
2021/04/08 06:08:28;;;;;;;9.70;5.30;;;;;;;0.06;74.70;101070.53;8677970;33;20229;-75
2021/04/08 06:13:30;;;;;;;8.93;5.10;;;;;;;0.26;73.53;101077.06;8679470;33;20839;-73
2021/04/08 06:18:32;;;;;;;14.43;6.70;;;;;;;0.54;73.18;101085.09;8679215;33;20998;-74
2021/04/08 06:23:35;;;;;;;13.87;7.63;;;;;;;0.25;74.15;101080.59;8679204;33;20228;-75
2021/04/08 06:28:37;;;;;;;12.07;4.13;;;;;;;0.32;73.82;101080.41;8678858;33;21462;-75
2021/04/08 06:33:39;;;;;;;10.50;6.53;;;;;;;0.58;73.10;101079.69;8678952;33;20221;-75
2021/04/08 06:38:44;;;;;;;9.87;6.23;;;;;;;0.45;73.60;101082.72;8717453;33;20231;-75
2021/04/08 06:43:47;;;;;;;11.70;5.40;;;;;;;0.49;73.25;101085.22;8736252;33;20232;-75
2021/04/08 06:48:58;;;;;;;8.43;4.73;;;;;;;0.47;72.82;101099.41;8735760;33;20310;-76
2021/04/08 06:54:02;;;;;;;12.73;5.40;;;;;;;0.56;73.45;101100.00;8720632;33;20796;-75
2021/04/08 06:59:06;;;;;;;10.83;6.57;;;;;;;0.88;71.92;101098.22;8665532;33;20274;-75
2021/04/08 07:04:10;;;;;;;11.67;6.13;;;;;;;0.99;72.59;101109.34;8698592;33;20240;-76
2021/04/08 07:09:13;;;;;;;11.17;5.73;;;;;;;1.00;71.60;101119.03;8677481;34;20225;-76
2021/04/08 07:14:16;;;;;;;12.10;6.63;;;;;;;1.22;70.83;101118.38;8689839;33;20226;-75
2021/04/08 07:19:19;;;;;;;3.67;2.97;;;;;;;0.84;71.66;101115.94;8734407;33;20224;-75
2021/04/08 07:24:24;;;;;;;16.63;4.40;;;;;;;1.04;70.83;101133.91;8734992;33;20235;-76
2021/04/08 07:29:55;;;;;;;7.20;4.37;;;;;;;1.24;70.96;101132.44;8733758;33;20231;-76
2021/04/08 07:34:59;;;;;;;8.73;4.90;;;;;;;1.77;69.27;101129.00;8733924;33;20751;-75
2021/04/08 07:40:13;;;;;;;6.63;4.17;;;;;;;2.55;67.92;101134.31;8709544;33;20219;-75
2021/04/08 07:45:25;;;;;;;9.93;4.87;;;;;;;2.42;67.18;101140.97;8734052;33;20638;-75
2021/04/08 07:50:31;;;;;;;9.77;4.87;;;;;;;2.08;68.04;101153.56;8734283;33;20348;-75
2021/04/08 07:55:37;;;;;;;7.53;4.43;;;;;;;1.96;68.16;101148.69;8734441;33;20808;-76
2021/04/08 08:00:42;;;;;;;9.13;5.27;;;;;;;2.35;67.58;101153.56;8733976;33;20224;-76
2021/04/08 08:05:51;;;;;;;13.50;6.50;;;;;;;2.34;67.98;101152.69;8738886;33;20227;-72
2021/04/08 08:11:02;;;;;;;13.53;6.30;;;;;;;2.65;66.61;101164.06;8715846;33;20231;-74
2021/04/08 08:16:07;;;;;;;11.43;5.13;;;;;;;3.01;65.82;101168.00;8738597;33;20240;-76
2021/04/08 08:21:16;;;;;;;10.87;5.87;;;;;;;3.31;65.18;101157.16;8715676;33;20300;-76
2021/04/08 08:26:39;;;;;;;12.97;7.03;;;;;;;3.72;63.75;101147.56;8739727;33;20228;-74
2021/04/08 08:31:46;;;;;;;9.40;4.50;;;;;;;3.12;63.30;101161.44;8739857;33;20271;-75
2021/04/08 08:36:53;;;;;;;15.10;3.70;;;;;;;3.47;62.93;101173.38;8748717;33;20228;-74
2021/04/08 08:41:58;;;;;;;13.37;6.27;;;;;;;3.31;63.84;101161.59;8738453;33;20220;-75
2021/04/08 08:47:05;;;;;;;3.90;3.03;;;;;;;3.40;61.70;101175.41;8738617;33;20751;-75
2021/04/08 08:52:10;;;;;;;8.43;4.53;;;;;;;3.72;60.94;101178.59;8761596;33;20326;-75
2021/04/08 08:57:16;;;;;;;5.93;3.80;;;;;;;3.41;62.12;101174.47;8762301;33;20216;-75
2021/04/08 09:02:19;;;;;;;10.27;4.93;;;;;;;4.10;59.58;101171.72;8767644;33;20231;-76
2021/04/08 09:07:22;;;;;;;12.27;5.30;;;;;;;4.98;58.59;101179.44;8767419;33;20223;-75
2021/04/08 09:12:27;;;;;;;7.40;3.97;;;;;;;4.29;59.68;101181.59;8766919;33;20280;-74
2021/04/08 09:17:42;;;;;;;6.50;4.00;;;;;;;3.91;60.14;101182.22;8765001;33;20600;-75
2021/04/08 09:22:54;;;;;;;4.47;3.10;;;;;;;4.03;60.63;101185.31;8767378;33;21385;-76
2021/04/08 09:28:01;;;;;;;7.83;2.90;;;;;;;3.93;59.91;101171.53;8766247;33;20257;-76
2021/04/08 09:33:03;;;;;;;6.68;3.63;;;;;;;4.67;59.72;101176.41;8768312;33;20232;-76
2021/04/08 09:38:17;;;;;;;6.85;3.40;;;;;;;4.43;58.12;101171.22;8767056;33;20238;-76
2021/04/08 09:43:26;;;;;;;4.35;2.42;;;;;;;4.08;57.10;101165.59;8748307;33;20231;-76
2021/04/08 09:48:46;;;;;;;5.88;2.20;;;;;;;4.41;55.17;101157.09;8689886;33;20302;-76
2021/04/08 09:54:10;;;;;;;3.67;2.33;;;;;;;4.97;55.38;101153.75;8681690;33;20232;-76
2021/04/08 09:59:15;;;;;;;6.45;2.83;;;;;;;4.99;54.78;101157.25;8680083;33;20220;-76
2021/04/08 10:04:21;;;;;;;4.45;2.40;;;;;;;5.05;54.89;101150.78;8681087;33;20224;-75
2021/04/08 10:09:23;;;;;;;5.40;2.30;;;;;;;5.56;53.11;101169.72;8680558;33;20887;-75
2021/04/08 10:14:30;;;;;;;6.30;2.35;;;;;;;6.18;51.05;101131.09;8678552;33;20268;-75
2021/04/08 10:19:37;;;;;;;3.63;1.92;;;;;;;5.64;52.12;101155.06;8655975;33;21512;-75
2021/04/08 10:24:41;;;;;;;2.92;1.60;;;;;;;5.52;50.47;101153.00;8713486;33;20802;-75
2021/04/08 10:29:46;;;;;;;5.28;1.60;;;;;;;6.10;50.67;101151.97;8679544;33;20228;-75
2021/04/08 10:34:48;;;;;;;3.65;1.83;;;;;;;5.11;50.00;101145.16;8679352;33;20256;-75
2021/04/08 10:39:51;;;;;;;2.05;1.58;;;;;;;5.40;50.65;101153.56;8738794;33;20223;-75
2021/04/08 10:44:58;;;;;;;6.00;2.50;;;;;;;5.24;52.90;101149.00;8764531;33;20231;-74
2021/04/08 10:50:03;;;;;;;2.58;1.92;;;;;;;4.82;51.08;101170.41;8766627;33;20228;-75
2021/04/08 10:55:08;;;;;;;1.90;1.80;;;;;;;4.58;51.88;101159.91;8758977;33;20228;-76
2021/04/08 11:00:15;;;;;;;2.83;2.20;;;;;;;6.06;49.64;101159.28;8765264;33;20719;-75
2021/04/08 11:05:21;;;;;;;2.75;2.38;;;;;;;5.67;47.53;101160.25;8726685;33;20219;-74
2021/04/08 11:10:27;;;;;;;2.55;2.03;;;;;;;5.35;48.52;101148.50;8736935;33;20220;-74
2021/04/08 11:15:32;;;;;;;3.10;1.60;;;;;;;5.45;45.32;101155.09;8709924;33;20698;-74
2021/04/08 11:20:37;;;;;;;4.10;2.22;;;;;;;5.15;46.81;101143.22;8654442;33;20743;-73
2021/04/08 11:25:41;;;;;;;4.95;2.03;;;;;;;5.23;47.00;101152.56;8679271;33;20240;-75
2021/04/08 11:30:46;;;;;;;7.45;2.50;;;;;;;4.53;48.00;101145.94;8678220;34;20224;-75
2021/04/08 11:35:48;;;;;;;4.57;3.22;;;;;;;4.60;49.75;101143.88;8697403;33;20243;-75
2021/04/08 11:41:06;;;;;;;2.90;2.63;;;;;;;4.47;49.36;101143.56;8710305;33;20319;-75
2021/04/08 11:46:26;;;;;;;3.15;2.65;;;;;;;4.39;47.52;101149.22;8718838;33;20267;-75
2021/04/08 11:51:30;;;;;;;4.55;3.28;;;;;;;5.14;49.53;101146.81;8737887;33;20224;-75
2021/04/08 11:56:35;;;;;;;8.15;3.72;;;;;;;4.52;49.91;101156.66;8712385;33;20946;-73
2021/04/08 12:01:43;;;;;;;6.15;3.47;;;;;;;5.16;49.31;101150.28;8724788;33;20235;-74
2021/04/08 12:06:48;;;;;;;3.00;2.70;;;;;;;4.87;50.00;101152.44;8737512;33;20227;-75
2021/04/08 12:11:54;;;;;;;7.28;3.67;;;;;;;4.98;49.83;101144.81;8716843;33;20232;-75
2021/04/08 12:17:04;;;;;;;6.90;3.40;;;;;;;5.11;49.38;101145.16;8739770;33;21483;-75
2021/04/08 12:22:09;;;;;;;10.73;3.38;;;;;;;4.79;49.99;101144.78;8739986;33;21510;-76
2021/04/08 12:27:17;;;;;;;5.60;3.38;;;;;;;4.48;49.66;101157.72;8776891;33;20708;-75
2021/04/08 12:32:28;;;;;;;5.53;2.83;;;;;;;4.07;49.48;101155.88;8764960;33;20877;-75
2021/04/08 12:37:31;;;;;;;3.97;2.67;;;;;;;4.41;50.10;101170.41;8739391;33;20704;-75
2021/04/08 12:42:37;;;;;;;4.13;2.28;;;;;;;4.70;49.31;101155.00;8771545;33;20243;-74
2021/04/08 12:47:42;;;;;;;2.90;2.42;;;;;;;5.04;48.75;101149.88;8767301;33;20227;-74
2021/04/08 12:52:44;;;;;;;2.88;2.47;;;;;;;5.55;47.90;101138.69;8772840;33;20256;-75
2021/04/08 12:57:46;;;;;;;1.85;1.67;;;;;;;5.50;45.77;101125.56;8751805;33;20223;-76
2021/04/08 13:02:49;;;;;;;4.38;2.42;;;;;;;5.56;45.44;101129.72;8739821;33;20239;-74
2021/04/08 13:07:53;;;;;;;3.75;2.55;;;;;;;5.12;46.95;101122.06;8739487;33;20222;-73
2021/04/08 13:12:55;;;;;;;5.85;3.15;;;;;;;6.63;44.01;101108.28;8740001;33;20264;-75
2021/04/08 13:18:01;;;;;;;3.78;2.45;;;;;;;5.76;45.51;101113.66;8739127;33;20238;-75
2021/04/08 13:23:04;;;;;;;4.20;2.08;;;;;;;5.08;46.02;101123.13;8740041;33;20240;-74
2021/04/08 13:28:07;;;;;;;5.55;3.53;;;;;;;5.40;46.84;101103.84;8739892;33;21425;-75
2021/04/08 13:33:10;;;;;;;7.47;5.38;;;;;;;6.21;45.57;101104.25;8739287;33;20231;-75
2021/04/08 13:38:12;;;;;;;6.80;5.07;;;;;;;6.87;43.04;101094.56;8714548;33;20231;-75
2021/04/08 13:43:15;;;;;;;5.50;3.83;;;;;;;6.87;40.38;101094.56;8738392;33;20221;-74
2021/04/08 13:48:18;;;;;;;6.22;4.20;;;;;;;6.66;41.32;101084.09;8737242;33;20228;-75
2021/04/08 13:53:21;;;;;;;4.47;2.78;;;;;;;6.08;42.63;101089.81;8714909;33;20366;-75
2021/04/08 13:58:23;;;;;;;4.70;3.40;;;;;;;5.70;41.79;101089.94;8676639;33;20225;-75
2021/04/08 14:03:26;;;;;;;6.15;4.70;;;;;;;5.30;43.78;101083.91;8680795;34;20264;-74
2021/04/08 14:08:28;;;;;;;6.57;5.05;;;;;;;5.26;42.68;101075.16;8738009;33;21370;-74
2021/04/08 14:13:30;;;;;;;7.28;5.00;;;;;;;5.07;43.42;101074.31;8738295;33;20987;-75
2021/04/08 14:18:34;;;;;;;7.20;5.63;;;;;;;5.27;43.17;101081.38;8738703;33;20224;-74
2021/04/08 14:23:36;;;;;;;6.70;5.50;;;;;;;5.13;44.19;101073.16;8738599;33;20266;-74
2021/04/08 14:28:39;;;;;;;7.38;5.28;;;;;;;5.12;42.59;101060.78;8713914;33;20238;-75
2021/04/08 14:33:42;;;;;;;5.63;4.07;;;;;;;5.50;42.71;101059.78;8738669;33;20277;-75
2021/04/08 14:38:44;;;;;;;8.52;5.05;;;;;;;5.80;42.10;101061.88;8738455;33;20250;-75
2021/04/08 14:43:46;;;;;;;9.98;5.47;;;;;;;5.41;42.61;101060.25;8738052;33;20279;-74
2021/04/08 14:48:49;;;;;;;10.27;6.65;;;;;;;5.59;42.60;101045.16;8736180;33;20231;-75
2021/04/08 14:53:51;;;;;;;11.27;7.75;;;;;;;5.51;43.69;101047.31;8735684;33;20231;-76
2021/04/08 14:58:53;;;;;;;10.70;7.82;;;;;;;5.99;42.79;101032.47;8735233;33;20230;-75
2021/04/08 15:03:57;;;;;;;8.55;6.38;;;;;;;6.63;39.90;101037.06;8735801;33;20323;-75
2021/04/08 15:08:59;;;;;;;11.15;7.82;;;;;;;5.95;40.38;101023.78;8734680;33;20231;-75
2021/04/08 15:14:01;;;;;;;11.38;7.85;;;;;;;6.06;40.55;101031.22;8729447;33;20240;-75
2021/04/08 15:19:04;;;;;;;8.65;6.32;;;;;;;5.68;41.80;101022.53;8732967;33;20755;-74
2021/04/08 15:24:08;;;;;;;12.48;8.77;;;;;;;5.60;41.27;101016.72;8708792;33;20235;-73
2021/04/08 15:29:10;;;;;;;17.00;9.60;;;;;;;5.61;41.20;101013.09;8733650;33;20290;-75
2021/04/08 15:34:13;;;;;;;12.02;9.35;;;;;;;5.87;42.32;101004.66;8734440;33;20220;-76
2021/04/08 15:39:16;;;;;;;13.23;9.75;;;;;;;5.64;41.22;101004.94;8709207;33;20235;-75
2021/04/08 15:44:18;;;;;;;9.13;7.68;;;;;;;5.54;40.95;101003.69;8709527;33;20770;-76
2021/04/08 15:49:22;;;;;;;16.30;11.25;;;;;;;5.25;41.74;100998.00;8709220;33;20227;-76
2021/04/08 15:54:24;;;;;;;11.13;9.20;;;;;;;5.79;41.41;100995.28;8734336;33;21446;-74
2021/04/08 15:59:27;;;;;;;14.98;8.07;;;;;;;6.58;39.96;100977.75;8733630;33;20668;-76
2021/04/08 16:04:30;;;;;;;10.00;7.43;;;;;;;6.05;39.93;100991.28;8709284;33;20639;-76
2021/04/08 16:09:32;;;;;;;9.40;7.07;;;;;;;6.12;39.88;100976.69;8733249;33;20227;-75
2021/04/08 16:14:35;;;;;;;12.57;8.55;;;;;;;6.20;40.00;100965.59;8720989;33;20275;-75
2021/04/08 16:19:39;;;;;;;17.65;10.18;;;;;;;6.43;40.04;100969.72;8716127;33;21442;-75
2021/04/08 16:24:41;;;;;;;13.25;6.97;;;;;;;6.04;39.20;100965.56;8690017;33;20228;-76
2021/04/08 16:29:44;;;;;;;15.52;11.65;;;;;;;6.75;39.51;100962.59;8738220;33;20230;-75
2021/04/08 16:34:47;;;;;;;12.10;8.82;;;;;;;6.46;39.93;100956.19;8738087;33;20224;-77
2021/04/08 16:39:49;;;;;;;13.88;10.00;;;;;;;6.47;39.48;100944.56;8737499;33;20230;-76
2021/04/08 16:44:51;;;;;;;14.32;10.55;;;;;;;6.28;38.99;100937.59;8713294;33;20239;-76
2021/04/08 16:49:54;;;;;;;14.20;11.30;;;;;;;5.85;40.42;100950.53;8735063;33;20283;-76
2021/04/08 16:54:57;;;;;;;12.02;10.43;;;;;;;5.63;41.22;100939.25;8736845;33;20262;-76
2021/04/08 17:00:00;;;;;;;19.10;10.60;;;;;;;5.53;41.32;100935.34;8736575;33;20219;-76
2021/04/08 17:05:04;;;;;;;17.58;11.65;;;;;;;5.19;41.25;100931.72;8736240;33;20622;-75
2021/04/08 17:10:10;;;;;;;13.07;10.88;;;;;;;5.58;40.64;100935.97;8736044;33;20224;-75
2021/04/08 17:15:13;;;;;;;12.43;10.43;;;;;;;5.63;40.91;100926.78;8711786;33;20228;-76
2021/04/08 17:20:18;;;;;;;14.50;10.70;;;;;;;5.52;41.00;100937.16;8711743;33;20226;-76
2021/04/08 17:25:21;;;;;;;14.23;10.20;;;;;;;5.09;41.28;100939.28;8738305;33;20219;-75
2021/04/08 17:30:25;;;;;;;12.43;9.55;;;;;;;5.06;41.90;100932.31;8737055;33;20257;-75
2021/04/08 17:35:29;;;;;;;13.35;9.57;;;;;;;5.02;42.35;100938.75;8737387;33;20236;-75
2021/04/08 17:40:31;;;;;;;14.73;10.30;;;;;;;5.06;42.16;100929.66;8743518;33;20743;-75
2021/04/08 17:45:33;;;;;;;13.10;9.77;;;;;;;4.83;42.90;100933.41;8768100;33;20236;-77
2021/04/08 17:50:36;;;;;;;14.95;9.35;;;;;;;4.80;42.24;100927.34;8739996;33;20223;-75
2021/04/08 17:55:43;;;;;;;13.68;10.13;;;;;;;4.98;41.97;100914.97;8714974;33;20228;-77
2021/04/08 18:00:49;;;;;;;16.48;9.93;;;;;;;4.94;42.28;100908.06;8736183;33;20223;-73
2021/04/08 18:05:52;;;;;;;13.82;9.82;;;;;;;4.78;42.47;100915.94;8738692;33;20236;-76
2021/04/08 18:10:55;;;;;;;14.52;9.25;;;;;;;4.73;42.91;100912.63;8739225;33;20220;-76
2021/04/08 18:15:57;;;;;;;15.63;9.80;;;;;;;4.80;42.63;100900.75;8714413;33;20224;-76
2021/04/08 18:21:00;;;;;;;13.73;9.50;;;;;;;4.82;42.41;100897.06;8737620;33;20228;-75
2021/04/08 18:26:02;;;;;;;15.63;10.65;;;;;;;4.83;43.27;100897.97;8738374;33;20250;-76
2021/04/08 18:31:05;;;;;;;17.13;10.85;;;;;;;4.74;43.56;100895.72;8736384;33;20228;-75
2021/04/08 18:36:09;;;;;;;19.98;10.18;;;;;;;4.60;43.76;100885.75;8722823;33;20232;-75
2021/04/08 18:41:11;;;;;;;14.43;10.15;;;;;;;4.62;44.31;100891.84;8740476;33;20274;-77
2021/04/08 18:46:14;;;;;;;17.10;9.95;;;;;;;4.56;44.23;100894.81;8715692;33;20255;-75
2021/04/08 18:51:18;;;;;;;15.57;9.82;;;;;;;4.54;44.50;100886.03;8738279;33;20290;-74
2021/04/08 18:56:21;;;;;;;14.85;8.95;;;;;;;4.44;44.59;100890.06;8736897;33;21384;-74
2021/04/08 19:01:23;;;;;;;15.65;9.68;;;;;;;4.40;44.74;100878.72;8703985;33;21442;-75
2021/04/08 19:06:27;;;;;;;13.13;10.18;;;;;;;4.40;44.76;100879.59;8734953;33;21517;-75
2021/04/08 19:11:29;;;;;;;17.38;10.40;;;;;;;4.43;44.84;100872.41;8732973;33;20226;-75
2021/04/08 19:16:31;;;;;;;15.05;9.43;;;;;;;4.35;45.33;100873.59;8731940;33;20634;-72
2021/04/08 19:21:34;;;;;;;16.17;10.00;;;;;;;4.27;45.41;100862.47;8733292;33;20228;-76
2021/04/08 19:26:37;;;;;;;17.42;10.40;;;;;;;4.16;45.83;100852.34;8733032;33;20729;-75
2021/04/08 19:31:39;;;;;;;16.00;10.55;;;;;;;4.29;45.44;100865.06;8727497;33;20320;-75
2021/04/08 19:36:42;;;;;;;18.58;11.10;;;;;;;4.26;45.34;100860.75;8678805;33;20309;-73
2021/04/08 19:41:44;;;;;;;17.15;10.32;;;;;;;4.21;45.60;100864.56;8676045;33;20244;-73
2021/04/08 19:46:47;;;;;;;16.20;10.68;;;;;;;4.23;45.50;100854.72;8670191;33;20721;-74
2021/04/08 19:51:50;;;;;;;18.13;10.35;;;;;;;4.17;45.69;100858.53;8675518;33;20816;-74
2021/04/08 19:56:52;;;;;;;15.80;11.33;;;;;;;4.17;45.83;100853.22;8728529;33;20228;-74
2021/04/08 20:01:55;;;;;;;21.40;11.82;;;;;;;4.12;46.04;100840.13;8736932;33;20220;-73
2021/04/08 20:06:58;;;;;;;17.48;11.88;;;;;;;4.07;46.32;100842.13;8737763;33;20621;-75
2021/04/08 20:12:00;;;;;;;17.98;11.07;;;;;;;3.97;46.86;100827.53;8743851;33;20736;-75
2021/04/08 20:17:02;;;;;;;18.23;11.30;;;;;;;3.86;47.30;100833.34;8739139;33;20240;-77
2021/04/08 20:22:06;;;;;;;21.25;11.88;;;;;;;3.78;47.48;100829.31;8733504;33;20692;-73
2021/04/08 20:27:08;;;;;;;20.40;11.88;;;;;;;3.69;47.53;100812.00;8737950;33;20325;-76
2021/04/08 20:32:11;;;;;;;17.52;11.65;;;;;;;3.66;47.82;100814.81;8737482;33;20656;-74
2021/04/08 20:37:15;;;;;;;17.85;12.35;;;;;;;3.61;48.30;100801.72;8737403;33;20224;-75
2021/04/08 20:42:21;;;;;;;19.85;12.10;;;;;;;3.48;48.83;100795.25;8736695;33;20597;-75
2021/04/08 20:47:24;;;;;;;19.30;12.77;;;;;;;3.42;48.80;100795.53;8737718;33;20234;-75
2021/04/08 20:52:27;;;;;;;18.70;12.68;;;;;;;3.32;49.45;100783.56;8741506;33;20231;-76
2021/04/08 20:57:29;;;;;;;20.73;13.60;;;;;;;3.30;49.31;100781.00;8716334;33;20234;-74
2021/04/08 21:02:32;;;;;;;24.63;14.40;;;;;;;3.24;49.56;100779.47;8740585;33;20234;-75
2021/04/08 21:07:36;;;;;;;27.03;15.50;;;;;;;3.13;50.00;100772.94;8716057;33;20224;-75
2021/04/08 21:12:39;;;;;;;23.85;14.35;;;;;;;3.14;50.13;100756.91;8634530;33;20229;-75
2021/04/08 21:17:41;;;;;;;23.77;14.77;;;;;;;3.06;50.49;100761.69;8675250;33;20217;-75
2021/04/08 21:22:45;;;;;;;21.33;13.83;;;;;;;3.01;50.40;100758.38;8680126;33;20236;-75
2021/04/08 21:27:47;;;;;;;24.13;15.23;;;;;;;2.95;50.79;100756.00;8727834;33;20224;-75
2021/04/08 21:32:51;;;;;;;27.47;14.97;;;;;;;2.92;50.85;100754.34;8739526;33;20346;-75
2021/04/08 21:37:54;;;;;;;22.43;13.90;;;;;;;2.90;51.02;100752.69;8738526;33;20216;-75
2021/04/08 21:42:56;;;;;;;23.37;13.10;;;;;;;2.89;51.05;100740.34;8764285;33;20227;-75
2021/04/08 21:47:59;;;;;;;22.43;13.23;;;;;;;2.81;51.29;100738.03;8718139;33;20231;-76
2021/04/08 21:53:02;;;;;;;19.87;12.83;;;;;;;2.69;51.56;100738.53;8738690;33;20240;-74
2021/04/08 21:58:05;;;;;;;19.13;11.57;;;;;;;2.61;51.36;100731.78;8738188;33;20647;-75
2021/04/08 22:03:09;;;;;;;21.03;12.00;;;;;;;2.73;51.19;100724.22;8738434;33;20228;-75
2021/04/08 22:08:12;;;;;;;17.77;11.07;;;;;;;2.58;51.50;100710.69;8737711;33;20228;-75
2021/04/08 22:13:14;;;;;;;18.40;11.40;;;;;;;2.52;52.08;100700.28;8738133;33;20231;-74
2021/04/08 22:18:17;;;;;;;16.63;11.27;;;;;;;2.48;52.52;100700.50;8742160;33;20236;-75
2021/04/08 22:23:22;;;;;;;17.23;11.23;;;;;;;2.45;52.66;100704.16;8747818;33;20224;-75
2021/04/08 22:28:26;;;;;;;15.93;10.13;;;;;;;2.37;53.00;100698.31;8738026;33;20220;-74
2021/04/08 22:33:34;;;;;;;12.27;9.50;;;;;;;2.28;53.20;100683.66;8738504;33;20224;-74
2021/04/08 22:38:38;;;;;;;15.93;9.60;;;;;;;2.20;53.75;100677.81;8737693;33;20224;-75
2021/04/08 22:43:43;;;;;;;12.93;8.50;;;;;;;2.22;53.56;100677.72;8737557;33;20239;-75
2021/04/08 22:48:46;;;;;;;16.43;9.80;;;;;;;2.28;53.40;100664.25;8712902;33;20269;-74
2021/04/08 22:53:49;;;;;;;14.13;9.00;;;;;;;2.31;53.06;100659.66;8737827;33;20227;-75
2021/04/08 22:58:51;;;;;;;11.93;7.73;;;;;;;2.32;53.11;100663.16;8737407;33;20227;-74
2021/04/08 23:03:55;;;;;;;15.80;7.43;;;;;;;2.33;52.45;100654.28;8736754;33;20277;-74
2021/04/08 23:09:00;;;;;;;14.30;8.00;;;;;;;2.54;51.93;100650.75;8737109;33;20271;-74
2021/04/08 23:14:06;;;;;;;14.23;8.40;;;;;;;2.53;52.15;100642.84;8730982;33;20271;-75
2021/04/08 23:19:08;;;;;;;16.07;8.80;;;;;;;2.52;52.13;100639.28;8707491;33;20227;-75
2021/04/08 23:24:11;;;;;;;13.03;7.83;;;;;;;2.60;52.12;100631.03;8710160;33;20242;-75
2021/04/08 23:29:13;;;;;;;14.47;7.77;;;;;;;2.67;51.94;100629.84;8703799;33;20232;-75
2021/04/08 23:34:16;;;;;;;16.60;8.63;;;;;;;2.70;52.06;100621.75;8714397;33;20223;-74